createdAt,value
2019-05-03T00:01:57.630Z,39.87
2019-05-03T00:04:28.148Z,40.27
2019-05-03T00:06:58.912Z,35.30
2019-05-03T00:09:29.508Z,37.30
2019-05-03T00:12:01.900Z,36.60
2019-05-03T00:14:32.946Z,38.43
2019-05-03T00:17:04.546Z,42.13
2019-05-03T00:19:35.068Z,45.20
2019-05-03T00:22:05.920Z,42.13
2019-05-03T00:24:36.371Z,37.73
2019-05-03T00:27:06.923Z,36.87
2019-05-03T00:29:37.438Z,39.43
2019-05-03T00:32:07.918Z,42.57
2019-05-03T00:34:42.481Z,40.93
2019-05-03T00:37:15.706Z,39.90
2019-05-03T00:39:57.363Z,38.73
2019-05-03T00:42:28.116Z,37.90
2019-05-03T00:44:58.703Z,35.03
2019-05-03T00:47:29.352Z,34.80
2019-05-03T00:50:00.031Z,39.70
2019-05-03T00:52:31.847Z,38.73
2019-05-03T00:55:15.499Z,35.83
2019-05-03T00:57:35.014Z,42.30
2019-05-03T01:00:05.963Z,36.67
2019-05-03T01:02:36.661Z,35.23
2019-05-03T01:05:07.394Z,45.73
2019-05-03T01:07:37.877Z,36.97
2019-05-03T01:10:08.989Z,37.60
2019-05-03T01:12:41.667Z,42.07
2019-05-03T01:15:21.549Z,34.63
2019-05-03T01:17:52.575Z,37.27
2019-05-03T01:20:23.099Z,34.77
2019-05-03T01:22:53.553Z,32.23
2019-05-03T01:25:32.295Z,34.47
2019-05-03T01:27:56.176Z,31.00
2019-05-03T01:30:26.666Z,35.03
2019-05-03T01:32:57.195Z,32.80
2019-05-03T01:35:27.723Z,33.73
2019-05-03T01:37:58.386Z,35.37
2019-05-03T01:40:29.876Z,37.13
2019-05-03T01:43:02.210Z,34.40
2019-05-03T01:45:32.931Z,33.97
2019-05-03T01:48:24.874Z,36.13
2019-05-03T01:51:12.810Z,67.67
2019-05-03T01:53:43.312Z,40.97
2019-05-03T01:56:13.918Z,38.80
2019-05-03T01:58:44.400Z,33.73
2019-05-03T02:01:24.882Z,38.10
2019-05-03T02:04:07.608Z,35.30
2019-05-03T02:06:38.192Z,37.20
2019-05-03T02:09:09.410Z,36.60
2019-05-03T02:11:41.979Z,35.40
2019-05-03T02:14:12.475Z,37.80
2019-05-03T02:16:42.872Z,46.67
2019-05-03T02:19:13.516Z,37.60
2019-05-03T02:21:44.134Z,35.87
2019-05-03T02:24:14.683Z,34.57
2019-05-03T02:26:45.177Z,35.23
2019-05-03T02:29:15.679Z,36.87
2019-05-03T02:31:46.185Z,38.53
2019-05-03T02:34:16.811Z,31.27
2019-05-03T02:36:47.318Z,32.47
2019-05-03T02:39:19.553Z,35.33
2019-05-03T02:41:55.259Z,32.63
2019-05-03T02:44:26.412Z,37.20
2019-05-03T02:47:15.880Z,39.50
2019-05-03T02:49:50.589Z,34.40
2019-05-03T02:52:37.432Z,37.63
2019-05-03T02:55:09.731Z,34.63
2019-05-03T02:57:40.335Z,35.80
2019-05-03T03:00:16.281Z,35.43
2019-05-03T03:02:47.031Z,32.63
2019-05-03T03:05:17.507Z,32.90
2019-05-03T03:07:49.662Z,36.20
2019-05-03T03:10:20.406Z,36.33
2019-05-03T03:12:55.155Z,34.13
2019-05-03T03:15:26.202Z,34.77
2019-05-03T03:17:59.212Z,42.50
2019-05-03T03:20:30.338Z,33.33
2019-05-03T03:23:05.989Z,32.13
2019-05-03T03:25:39.676Z,31.57
2019-05-03T03:28:15.730Z,31.33
2019-05-03T03:31:32.357Z,42.17
2019-05-03T03:34:08.166Z,36.87
2019-05-03T03:36:58.304Z,31.27
2019-05-03T03:39:19.827Z,36.23
2019-05-03T03:41:50.947Z,36.53
2019-05-03T03:44:22.093Z,33.93
2019-05-03T03:46:56.160Z,33.87
2019-05-03T03:49:28.042Z,33.67
2019-05-03T03:52:00.602Z,32.00
2019-05-03T03:54:35.453Z,36.53
2019-05-03T03:57:08.028Z,33.47
2019-05-03T03:59:39.410Z,31.47
2019-05-03T04:02:09.949Z,37.57
2019-05-03T04:04:41.122Z,42.33
2019-05-03T04:07:11.693Z,37.93
2019-05-03T04:09:45.393Z,53.43
2019-05-03T04:12:16.428Z,46.87
2019-05-03T04:15:05.711Z,36.40
2019-05-03T04:17:58.285Z,30.73
2019-05-03T04:20:36.061Z,38.77
2019-05-03T04:23:07.469Z,33.13
2019-05-03T04:25:38.127Z,34.00
2019-05-03T04:28:09.614Z,40.40
2019-05-03T04:30:40.394Z,35.00
2019-05-03T04:33:10.943Z,39.13
2019-05-03T04:35:41.453Z,35.77
2019-05-03T04:38:11.996Z,34.43
2019-05-03T04:40:45.133Z,38.07
2019-05-03T04:43:16.512Z,38.50
2019-05-03T04:46:02.061Z,36.03
2019-05-03T04:48:32.561Z,36.13
2019-05-03T04:51:05.645Z,35.43
2019-05-03T04:53:37.178Z,34.03
2019-05-03T04:56:07.708Z,36.13
2019-05-03T04:58:38.379Z,34.97
2019-05-03T05:01:09.114Z,33.57
2019-05-03T05:03:39.835Z,31.80
2019-05-03T05:06:10.435Z,34.37
2019-05-03T05:08:41.010Z,30.90
2019-05-03T05:11:11.507Z,31.90
2019-05-03T05:13:42.079Z,32.50
2019-05-03T05:16:12.754Z,34.77
2019-05-03T05:18:47.896Z,32.67
2019-05-03T05:21:25.353Z,31.63
2019-05-03T05:24:06.040Z,32.40
2019-05-03T05:26:55.739Z,32.33
2019-05-03T05:29:28.665Z,32.33
2019-05-03T05:31:59.289Z,34.07
2019-05-03T05:34:29.871Z,35.50
2019-05-03T05:37:00.741Z,38.10
2019-05-03T05:39:31.576Z,37.40
2019-05-03T05:42:02.149Z,39.73
2019-05-03T05:44:32.607Z,36.27
2019-05-03T05:47:12.767Z,41.97
2019-05-03T05:49:50.047Z,37.50
2019-05-03T05:52:20.607Z,32.00
2019-05-03T05:55:10.052Z,35.07
2019-05-03T05:58:02.962Z,33.23
2019-05-03T06:00:31.944Z,33.43
2019-05-03T06:03:02.635Z,32.60
2019-05-03T06:05:35.411Z,35.57
2019-05-03T06:08:35.306Z,33.07
2019-05-03T06:11:14.984Z,39.37
2019-05-03T06:13:54.622Z,34.27
2019-05-03T06:16:34.753Z,29.37
2019-05-03T06:19:29.910Z,33.00
2019-05-03T06:22:19.245Z,31.60
2019-05-03T06:24:56.446Z,33.43
2019-05-03T06:27:34.716Z,31.10
2019-05-03T06:30:20.126Z,32.30
2019-05-03T06:32:51.569Z,37.53
2019-05-03T06:35:22.100Z,31.07
2019-05-03T06:37:54.484Z,38.80
2019-05-03T06:40:26.081Z,37.53
2019-05-03T06:43:08.688Z,35.87
2019-05-03T06:45:28.939Z,33.53
2019-05-03T06:47:59.557Z,35.97
2019-05-03T06:50:30.201Z,31.87
2019-05-03T06:53:05.415Z,33.80
2019-05-03T06:55:34.941Z,32.33
2019-05-03T06:58:05.350Z,34.87
2019-05-03T07:00:47.191Z,34.70
2019-05-03T07:03:29.595Z,30.80
2019-05-03T07:06:17.433Z,33.90
2019-05-03T07:09:10.283Z,38.17
2019-05-03T07:11:40.854Z,29.97
2019-05-03T07:14:11.444Z,35.23
2019-05-03T07:16:42.042Z,37.93
2019-05-03T07:19:14.609Z,36.47
2019-05-03T07:21:44.775Z,35.60
2019-05-03T07:24:15.279Z,38.63
2019-05-03T07:26:45.785Z,34.83
2019-05-03T07:29:16.281Z,36.87
2019-05-03T07:31:47.080Z,38.73
2019-05-03T07:34:17.497Z,41.43
2019-05-03T07:36:49.086Z,40.37
2019-05-03T07:39:19.635Z,40.60
2019-05-03T07:41:50.159Z,35.97
2019-05-03T07:44:20.648Z,38.67
2019-05-03T07:46:51.324Z,37.13
2019-05-03T07:49:21.776Z,40.80
2019-05-03T07:51:52.235Z,36.80
2019-05-03T07:54:24.845Z,37.60
2019-05-03T07:57:00.537Z,37.33
2019-05-03T07:59:31.309Z,38.50
2019-05-03T08:02:02.477Z,43.37
2019-05-03T08:04:35.644Z,40.37
2019-05-03T08:07:05.622Z,37.20
2019-05-03T08:09:36.238Z,40.73
2019-05-03T08:12:06.873Z,40.37
2019-05-03T08:14:37.467Z,38.87
2019-05-03T08:17:08.145Z,40.90
2019-05-03T08:19:38.665Z,43.67
2019-05-03T08:22:09.325Z,40.17
2019-05-03T08:24:39.947Z,39.90
2019-05-03T08:27:10.516Z,41.37
2019-05-03T08:29:41.194Z,37.70
2019-05-03T08:32:35.237Z,36.10
2019-05-03T08:35:27.505Z,42.60
2019-05-03T08:37:59.504Z,31.27
2019-05-03T08:40:34.988Z,31.33
2019-05-03T08:43:05.614Z,33.03
2019-05-03T08:45:36.214Z,34.97
2019-05-03T08:48:06.783Z,31.90
2019-05-03T08:50:37.496Z,34.00
2019-05-03T08:53:07.997Z,34.13
2019-05-03T08:55:38.546Z,30.50
2019-05-03T08:58:08.995Z,33.30
2019-05-03T09:00:41.099Z,34.23
2019-05-03T09:03:14.359Z,28.13
2019-05-03T09:05:46.217Z,28.93
2019-05-03T09:08:18.027Z,31.57
2019-05-03T09:10:54.648Z,27.53
2019-05-03T09:13:25.397Z,26.73
2019-05-03T09:15:56.181Z,28.33
2019-05-03T09:18:26.574Z,29.17
2019-05-03T09:20:57.095Z,31.83
2019-05-03T09:23:27.617Z,32.17
2019-05-03T09:25:58.108Z,31.93
2019-05-03T09:28:29.213Z,30.47
2019-05-03T09:31:00.923Z,24.93
2019-05-03T09:33:31.665Z,24.57
2019-05-03T09:36:02.553Z,30.03
2019-05-03T09:38:34.949Z,29.67
2019-05-03T09:41:05.375Z,28.93
2019-05-03T09:43:36.048Z,28.10
2019-05-03T09:46:06.513Z,27.47
2019-05-03T09:48:37.094Z,32.33
2019-05-03T09:51:07.670Z,24.30
2019-05-03T09:53:46.105Z,28.53
2019-05-03T09:56:18.932Z,26.60
2019-05-03T09:58:49.434Z,27.37
2019-05-03T10:01:20.081Z,25.77
2019-05-03T10:03:50.726Z,22.70
2019-05-03T10:06:21.162Z,23.73
2019-05-03T10:08:51.811Z,24.17
2019-05-03T10:11:22.353Z,26.70
2019-05-03T10:13:56.311Z,25.13
2019-05-03T10:16:26.975Z,25.27
2019-05-03T10:18:57.541Z,26.23
2019-05-03T10:21:29.691Z,26.27
2019-05-03T10:24:00.421Z,27.33
2019-05-03T10:26:32.461Z,26.03
2019-05-03T10:29:05.261Z,27.60
2019-05-03T10:31:42.510Z,21.30
2019-05-03T10:34:15.415Z,31.07
2019-05-03T10:36:45.367Z,32.60
2019-05-03T10:39:15.889Z,29.00
2019-05-03T10:41:46.637Z,25.53
2019-05-03T10:44:17.149Z,24.67
2019-05-03T10:46:47.898Z,24.70
2019-05-03T10:49:18.394Z,21.67
2019-05-03T10:51:54.848Z,23.43
2019-05-03T10:54:25.494Z,18.00
2019-05-03T10:57:07.625Z,19.20
2019-05-03T10:59:38.146Z,21.70
2019-05-03T11:02:39.832Z,24.27
2019-05-03T11:05:11.540Z,21.87
2019-05-03T11:07:42.233Z,36.50
2019-05-03T11:10:14.591Z,30.53
2019-05-03T11:12:45.405Z,27.37
2019-05-03T11:15:16.217Z,26.73
2019-05-03T11:17:46.896Z,29.03
2019-05-03T11:20:29.235Z,23.70
2019-05-03T11:22:54.832Z,34.73
2019-05-03T11:25:25.479Z,24.50
2019-05-03T11:27:56.829Z,26.00
2019-05-03T11:30:27.383Z,24.07
2019-05-03T11:33:02.225Z,25.63
2019-05-03T11:35:55.291Z,23.77
2019-05-03T11:38:28.810Z,25.27
2019-05-03T11:40:59.356Z,23.07
2019-05-03T11:43:29.907Z,20.80
2019-05-03T11:46:00.416Z,18.20
2019-05-03T11:48:30.992Z,23.17
2019-05-03T11:51:01.463Z,17.30
2019-05-03T11:53:31.951Z,26.80
2019-05-03T11:56:02.442Z,20.73
2019-05-03T11:58:34.603Z,21.53
2019-05-03T12:01:18.890Z,24.13
2019-05-03T12:03:50.095Z,27.13
2019-05-03T12:06:20.689Z,20.13
2019-05-03T12:08:51.405Z,19.30
2019-05-03T12:11:24.314Z,21.87
2019-05-03T12:14:11.131Z,23.93
2019-05-03T12:17:17.269Z,23.23
2019-05-03T12:19:20.720Z,18.83
2019-05-03T12:21:50.385Z,22.90
2019-05-03T12:24:22.147Z,24.10
2019-05-03T12:26:53.215Z,22.53
2019-05-03T12:29:24.621Z,24.07
2019-05-03T12:31:55.500Z,16.90
2019-05-03T12:34:26.153Z,13.03
2019-05-03T12:36:56.836Z,13.07
2019-05-03T12:39:30.608Z,15.80
2019-05-03T12:41:59.746Z,10.87
2019-05-03T12:44:30.256Z,10.37
2019-05-03T12:47:02.543Z,12.27
2019-05-03T12:49:32.850Z,11.43
2019-05-03T12:52:05.241Z,11.33
2019-05-03T12:54:35.879Z,9.63
2019-05-03T12:57:06.585Z,11.30
2019-05-03T12:59:58.750Z,9.17
2019-05-03T13:02:57.470Z,10.13
2019-05-03T13:05:29.510Z,5.77
2019-05-03T13:08:23.430Z,7.53
2019-05-03T13:10:55.731Z,11.60
2019-05-03T13:13:26.247Z,20.13
2019-05-03T13:15:56.764Z,5.50
2019-05-03T13:18:27.229Z,9.37
2019-05-03T13:20:57.775Z,6.07
2019-05-03T13:23:28.378Z,6.23
2019-05-03T13:25:58.817Z,9.10
2019-05-03T13:28:29.343Z,6.63
2019-05-03T13:30:59.783Z,3.30
2019-05-03T13:33:32.072Z,10.00
2019-05-03T13:36:02.792Z,7.70
2019-05-03T13:38:35.081Z,4.87
2019-05-03T13:41:06.484Z,4.17
2019-05-03T13:43:38.157Z,4.97
2019-05-03T13:46:08.638Z,6.83
2019-05-03T13:48:45.381Z,14.00
2019-05-03T13:51:11.256Z,4.70
2019-05-03T13:53:41.809Z,3.60
2019-05-03T13:56:12.317Z,3.80
2019-05-03T13:58:44.574Z,4.70
2019-05-03T14:01:15.528Z,3.70
2019-05-03T14:03:46.117Z,3.93
2019-05-03T14:06:16.656Z,5.03
2019-05-03T14:08:48.164Z,4.13
2019-05-03T14:11:18.686Z,5.27
2019-05-03T14:13:49.220Z,4.57
2019-05-03T14:16:19.808Z,4.87
2019-05-03T14:18:52.016Z,5.77
2019-05-03T14:21:30.990Z,6.30
2019-05-03T14:24:12.928Z,6.37
2019-05-03T14:26:45.358Z,7.93
2019-05-03T14:29:16.067Z,12.17
2019-05-03T14:31:46.531Z,14.40
2019-05-03T14:34:17.634Z,9.57
2019-05-03T14:36:48.165Z,10.93
2019-05-03T14:39:18.949Z,6.60
2019-05-03T14:41:49.444Z,13.73
2019-05-03T14:44:20.035Z,10.33
2019-05-03T14:46:50.591Z,9.90
2019-05-03T14:49:21.049Z,6.80
2019-05-03T14:51:51.532Z,8.97
2019-05-03T14:54:24.897Z,10.10
2019-05-03T14:57:14.586Z,6.43
2019-05-03T15:00:08.586Z,18.60
2019-05-03T15:03:00.827Z,8.67
2019-05-03T15:05:31.348Z,11.93
2019-05-03T15:08:01.919Z,7.43
2019-05-03T15:10:32.410Z,6.27
2019-05-03T15:13:05.057Z,9.17
2019-05-03T15:15:35.066Z,7.47
2019-05-03T15:18:06.042Z,7.67
2019-05-03T15:20:36.528Z,6.80
2019-05-03T15:23:07.090Z,10.73
2019-05-03T15:25:38.045Z,8.27
2019-05-03T15:28:08.711Z,10.43
2019-05-03T15:30:39.260Z,9.23
2019-05-03T15:33:10.051Z,9.37
2019-05-03T15:35:40.622Z,13.47
2019-05-03T15:38:11.392Z,7.23
2019-05-03T15:40:42.216Z,11.13
2019-05-03T15:43:46.847Z,11.60
2019-05-03T15:46:31.236Z,11.17
2019-05-03T15:49:01.936Z,10.30
2019-05-03T15:51:32.426Z,10.23
2019-05-03T15:54:04.493Z,10.07
2019-05-03T15:56:35.891Z,10.37
2019-05-03T15:59:06.367Z,8.43
2019-05-03T16:01:36.930Z,8.13
2019-05-03T16:04:07.446Z,10.00
2019-05-03T16:06:37.998Z,7.60
2019-05-03T16:09:08.538Z,7.33
2019-05-03T16:11:39.058Z,9.23
2019-05-03T16:14:09.515Z,8.37
2019-05-03T16:16:40.077Z,7.03
2019-05-03T16:19:10.586Z,18.67
2019-05-03T16:21:41.097Z,13.10
2019-05-03T16:24:12.498Z,7.17
2019-05-03T16:27:00.373Z,6.73
2019-05-03T16:29:31.000Z,23.17
2019-05-03T16:32:01.683Z,7.93
2019-05-03T16:34:32.271Z,9.90
2019-05-03T16:37:04.376Z,8.37
2019-05-03T16:39:35.572Z,7.97
2019-05-03T16:42:07.733Z,8.50
2019-05-03T16:44:38.160Z,8.27
2019-05-03T16:47:08.734Z,16.67
2019-05-03T16:49:39.658Z,17.10
2019-05-03T16:52:10.211Z,12.13
2019-05-03T16:54:40.782Z,10.87
2019-05-03T16:57:11.387Z,11.47
2019-05-03T16:59:41.919Z,11.17
2019-05-03T17:02:14.691Z,10.20
2019-05-03T17:04:50.477Z,22.37
2019-05-03T17:07:35.628Z,15.53
2019-05-03T17:10:20.716Z,14.43
2019-05-03T17:12:51.280Z,11.87
2019-05-03T17:15:21.904Z,13.43
2019-05-03T17:17:52.422Z,16.60
2019-05-03T17:20:23.084Z,11.20
2019-05-03T17:22:55.511Z,16.77
2019-05-03T17:25:26.110Z,15.43
2019-05-03T17:27:56.668Z,16.23
2019-05-03T17:30:33.976Z,12.30
2019-05-03T17:33:00.488Z,16.47
2019-05-03T17:35:31.055Z,17.90
2019-05-03T17:38:01.604Z,19.90
2019-05-03T17:40:47.401Z,19.30
2019-05-03T17:43:30.313Z,17.50
2019-05-03T17:46:01.861Z,13.77
2019-05-03T17:48:32.303Z,14.33
2019-05-03T17:51:04.422Z,34.83
2019-05-03T17:53:54.838Z,16.33
2019-05-03T17:56:45.509Z,19.00
2019-05-03T17:59:38.471Z,19.47
2019-05-03T18:02:26.264Z,19.83
2019-05-03T18:05:15.708Z,17.33
2019-05-03T18:08:04.052Z,16.63
2019-05-03T18:10:35.497Z,20.93
2019-05-03T18:13:06.254Z,20.47
2019-05-03T18:15:36.824Z,19.73
2019-05-03T18:18:07.365Z,23.70
2019-05-03T18:20:37.899Z,34.60
2019-05-03T18:23:08.434Z,20.33
2019-05-03T18:25:39.079Z,15.67
2019-05-03T18:28:09.956Z,15.33
2019-05-03T18:30:40.599Z,17.87
2019-05-03T18:33:11.279Z,18.10
2019-05-03T18:35:41.786Z,18.30
2019-05-03T18:38:14.778Z,18.93
2019-05-03T18:40:45.592Z,21.80
2019-05-03T18:43:24.004Z,28.67
2019-05-03T18:46:22.481Z,19.67
2019-05-03T18:48:55.183Z,22.93
2019-05-03T18:51:25.632Z,25.70
2019-05-03T18:53:56.115Z,24.17
2019-05-03T18:56:26.586Z,25.93
2019-05-03T18:58:57.423Z,35.20
2019-05-03T19:01:28.993Z,24.57
2019-05-03T19:04:33.997Z,27.47
2019-05-03T19:07:03.891Z,27.33
2019-05-03T19:09:34.840Z,28.97
2019-05-03T19:12:26.289Z,22.13
2019-05-03T19:14:56.617Z,25.10
2019-05-03T19:17:46.038Z,23.07
2019-05-03T19:20:18.485Z,24.90
2019-05-03T19:22:49.075Z,24.73
2019-05-03T19:25:19.666Z,23.67
2019-05-03T19:27:50.312Z,24.73
2019-05-03T19:30:21.031Z,23.93
2019-05-03T19:32:51.545Z,33.37
2019-05-03T19:35:22.154Z,23.73
2019-05-03T19:37:52.624Z,24.33
2019-05-03T19:40:25.487Z,25.33
2019-05-03T19:42:56.062Z,26.00
2019-05-03T19:45:27.305Z,27.47
2019-05-03T19:47:57.915Z,40.30
2019-05-03T19:50:28.510Z,31.70
2019-05-03T19:53:06.730Z,40.17
2019-05-03T19:55:37.419Z,37.93
2019-05-03T19:58:07.864Z,25.77
2019-05-03T20:00:57.469Z,31.67
2019-05-03T20:03:45.517Z,23.93
2019-05-03T20:06:25.042Z,27.00
2019-05-03T20:08:59.835Z,29.80
2019-05-03T20:11:30.437Z,24.50
2019-05-03T20:14:01.139Z,22.40
2019-05-03T20:16:31.730Z,24.70
2019-05-03T20:19:15.345Z,25.20
2019-05-03T20:21:34.575Z,25.47
2019-05-03T20:24:05.613Z,27.63
2019-05-03T20:26:36.337Z,25.87
2019-05-03T20:29:06.833Z,20.40
2019-05-03T20:31:37.440Z,27.03
2019-05-03T20:34:08.090Z,25.60
2019-05-03T20:36:38.498Z,28.73
2019-05-03T20:39:09.117Z,27.20
2019-05-03T20:41:40.494Z,37.60
2019-05-03T20:44:28.866Z,27.10
2019-05-03T20:47:18.608Z,22.50
2019-05-03T20:50:08.085Z,21.87
2019-05-03T20:52:39.012Z,25.13
2019-05-03T20:55:09.580Z,26.80
2019-05-03T20:57:40.188Z,27.17
2019-05-03T21:00:11.500Z,26.57
2019-05-03T21:02:51.551Z,23.43
2019-05-03T21:05:26.753Z,26.93
2019-05-03T21:07:46.893Z,22.20
2019-05-03T21:10:17.576Z,24.83
2019-05-03T21:12:48.414Z,22.47
2019-05-03T21:15:38.042Z,28.93
2019-05-03T21:18:26.390Z,24.27
2019-05-03T21:21:15.776Z,25.73
2019-05-03T21:23:50.253Z,21.00
2019-05-03T21:26:20.976Z,25.50
2019-05-03T21:28:51.527Z,21.50
2019-05-03T21:31:22.103Z,32.80
2019-05-03T21:33:52.712Z,19.60
2019-05-03T21:36:25.502Z,20.60
2019-05-03T21:38:56.355Z,21.97
2019-05-03T21:41:26.842Z,21.57
2019-05-03T21:43:57.503Z,22.97
2019-05-03T21:46:48.346Z,23.20
2019-05-03T21:49:22.568Z,23.47
2019-05-03T21:51:53.693Z,21.83
2019-05-03T21:54:24.595Z,24.83
2019-05-03T21:56:57.829Z,21.17
2019-05-03T21:59:27.371Z,21.83
2019-05-03T22:01:57.955Z,25.13
2019-05-03T22:04:28.509Z,19.40
2019-05-03T22:06:59.151Z,20.07
2019-05-03T22:09:29.606Z,21.87
2019-05-03T22:12:00.150Z,20.83
2019-05-03T22:14:36.355Z,25.70
2019-05-03T22:17:25.345Z,21.60
2019-05-03T22:20:00.571Z,22.83
2019-05-03T22:22:49.356Z,21.67
2019-05-03T22:25:24.443Z,21.40
2019-05-03T22:27:55.269Z,18.27
2019-05-03T22:30:26.911Z,20.20
2019-05-03T22:32:57.554Z,21.20
2019-05-03T22:35:28.110Z,20.90
2019-05-03T22:37:58.756Z,21.43
2019-05-03T22:40:29.259Z,18.77
2019-05-03T22:43:00.045Z,21.93
2019-05-03T22:45:30.524Z,19.43
2019-05-03T22:48:01.056Z,17.97
2019-05-03T22:50:31.869Z,21.57
2019-05-03T22:53:02.609Z,19.33
2019-05-03T22:55:34.447Z,21.70
2019-05-03T22:58:05.683Z,21.23
2019-05-03T23:00:36.215Z,21.13
2019-05-03T23:03:06.726Z,20.53
2019-05-03T23:05:37.408Z,18.63
2019-05-03T23:08:07.983Z,15.37
2019-05-03T23:10:38.559Z,22.47
2019-05-03T23:13:09.019Z,16.67
2019-05-03T23:15:39.619Z,16.53
2019-05-03T23:18:10.113Z,18.03
2019-05-03T23:20:55.274Z,19.77
2019-05-03T23:23:43.157Z,21.07
2019-05-03T23:26:14.847Z,18.70
2019-05-03T23:28:46.713Z,22.00
2019-05-03T23:31:17.364Z,25.40
2019-05-03T23:33:47.943Z,21.00
2019-05-03T23:36:18.568Z,22.80
2019-05-03T23:38:49.126Z,26.07
2019-05-03T23:41:19.795Z,21.80
2019-05-03T23:43:50.237Z,20.47
2019-05-03T23:46:25.558Z,22.27
2019-05-03T23:48:56.360Z,19.87
2019-05-03T23:51:44.607Z,21.80
2019-05-03T23:54:15.186Z,18.23
2019-05-03T23:56:45.974Z,22.23
2019-05-03T23:59:16.576Z,25.27
